Stations météo

Publicité
Isola Stromboli, Italie (16416): Température de l'air & dewpoint: 13.09.2020 11:00:00 - 19.09.2020 11:00:00 (CEST)Isola Stromboli, Italie (16416): Vitesse du vent: 13.09.2020 11:00:00 - 19.09.2020 11:00:00 (CEST)Isola Stromboli, Italie (16416): Direction du vent: 13.09.2020 11:00:00 - 19.09.2020 11:00:00 (CEST)Isola Stromboli, Italie (16416): reduced air pressure: 13.09.2020 11:00:00 - 19.09.2020 11:00:00 (CEST)Isola Stromboli, Italie (16416): Quantités de précipitations: 13.09.2020 11:00:00 - 19.09.2020 11:00:00 (CEST)
Date & Time tt [°C] td [°C] ff [km/h] ff [knt] dd ppp [hPa] rr [mm]
19.09.2020 11:00:00 - - - - - - -
19.09.2020 10:00:00 26,8 22,8 5 3 S 1017,4 -
19.09.2020 09:00:00 25,9 23,5 0 0 N 1016,9 -
19.09.2020 08:00:00 24,9 23,3 5 3 S 1017,0 0,0
19.09.2020 07:00:00 24,4 22,2 9 5 S 1016,6 -
19.09.2020 06:00:00 24,0 22,2 11 6 S 1016,3 -
19.09.2020 05:00:00 23,3 20,8 5 3 S 1016,3 -
19.09.2020 04:00:00 23,4 20,9 5 3 S 1016,4 -
19.09.2020 03:00:00 23,9 21,5 5 3 S 1016,5 -
19.09.2020 02:00:00 23,9 21,9 9 5 S 1016,6 0,0
19.09.2020 01:00:00 24,4 22,0 9 5 S 1016,7 -
19.09.2020 00:00:00 24,7 23,1 13 7 S 1016,7 -
18.09.2020 23:00:00 25,0 23,9 11 6 S 1016,8 -
18.09.2020 22:00:00 25,1 24,0 9 5 S 1016,7 -
18.09.2020 21:00:00 25,0 23,9 9 5 S 1016,4 -
18.09.2020 20:00:00 25,2 24,1 9 5 S 1015,9 0,0
18.09.2020 19:00:00 25,6 24,3 15 8 S 1015,5 -
18.09.2020 18:00:00 25,8 24,3 18 10 S 1015,2 -
18.09.2020 17:00:00 26,0 24,4 22 12 S 1014,9 -
18.09.2020 16:00:00 26,6 24,4 24 13 S 1014,7 -
18.09.2020 15:00:00 27,0 24,2 18 10 S 1015,1 -
18.09.2020 14:00:00 27,0 24,2 22 12 S 1015,3 0,0
18.09.2020 13:00:00 27,0 24,4 24 13 S 1015,5 -
18.09.2020 12:00:00 26,8 24,6 22 12 S 1015,4 -
18.09.2020 11:00:00 26,6 24,4 26 14 S 1015,2 -
18.09.2020 10:00:00 26,3 24,5 29 16 S 1014,5 -
18.09.2020 09:00:00 25,9 24,1 28 15 S 1013,7 -
18.09.2020 08:00:00 25,4 23,8 24 13 S 1013,5 0,0
18.09.2020 07:00:00 25,2 22,8 26 14 S 1013,3 -
18.09.2020 06:00:00 25,3 22,5 26 14 S 1013,1 -
18.09.2020 05:00:00 25,2 22,2 28 15 S 1012,6 -
18.09.2020 04:00:00 25,2 22,4 24 13 S 1012,4 -
18.09.2020 03:00:00 25,3 22,1 28 15 S 1012,8 -
18.09.2020 02:00:00 25,5 21,7 26 14 S 1013,1 0,0
18.09.2020 01:00:00 25,4 21,4 22 12 S 1013,4 -
18.09.2020 00:00:00 25,6 20,8 21 11 S 1013,5 -
17.09.2020 23:00:00 25,8 21,6 24 13 S 1013,5 -
17.09.2020 22:00:00 26,0 20,0 22 12 S 1013,4 -
17.09.2020 21:00:00 26,7 16,8 21 11 S 1012,8 -
17.09.2020 20:00:00 25,8 21,0 18 10 S 1012,3 0,0
17.09.2020 19:00:00 26,2 20,7 21 11 S 1012,0 -
17.09.2020 18:00:00 26,1 21,5 21 11 S 1011,7 -
17.09.2020 17:00:00 26,4 20,4 18 10 S 1011,8 -
17.09.2020 16:00:00 26,5 21,6 18 10 S 1011,8 -
17.09.2020 15:00:00 26,7 20,5 22 12 S 1011,7 -
17.09.2020 14:00:00 26,6 21,5 24 13 S 1011,6 0,0
17.09.2020 13:00:00 26,7 21,6 24 13 S 1011,5 -
17.09.2020 12:00:00 26,3 20,8 18 10 S 1011,8 -
17.09.2020 11:00:00 26,4 20,4 21 11 S 1011,4 -
17.09.2020 10:00:00 26,1 21,3 22 12 S 1011,0 -
17.09.2020 09:00:00 26,2 20,2 18 10 S 1010,8 -
17.09.2020 08:00:00 26,1 19,9 22 12 S 1010,0 0,0
17.09.2020 07:00:00 25,4 20,1 21 11 S 1010,2 -
17.09.2020 06:00:00 24,8 20,0 16 9 S 1009,9 -
17.09.2020 05:00:00 25,2 21,0 16 9 S 1010,0 -
17.09.2020 04:00:00 25,1 22,7 22 12 S 1010,0 -
17.09.2020 03:00:00 25,5 22,7 22 12 S 1010,7 -
17.09.2020 02:00:00 25,7 21,3 24 13 S 1010,7 0,0
17.09.2020 01:00:00 25,8 22,0 28 15 S 1011,0 -
17.09.2020 00:00:00 25,3 19,8 24 13 S 1011,6 -
16.09.2020 23:00:00 25,0 21,0 22 12 S 1012,0 -
16.09.2020 22:00:00 25,6 21,2 11 6 S 1012,6 -
16.09.2020 21:00:00 25,8 21,6 16 9 S 1012,4 -
16.09.2020 20:00:00 26,2 20,7 15 8 S 1011,8 0,0
16.09.2020 19:00:00 26,3 15,6 18 10 S 1012,3 -
16.09.2020 18:00:00 27,0 12,9 15 8 S 1012,5 -
16.09.2020 17:00:00 25,7 21,5 2 1 S 1013,0 -
16.09.2020 16:00:00 26,4 22,2 8 4 S 1013,3 -
16.09.2020 15:00:00 26,8 22,6 5 3 S 1013,8 -
16.09.2020 14:00:00 26,5 21,9 15 8 S 1014,0 0,0
16.09.2020 13:00:00 27,8 22,9 5 3 S 1014,7 -
16.09.2020 12:00:00 26,8 22,6 4 2 S 1015,3 -
16.09.2020 11:00:00 26,5 22,5 4 2 S 1015,4 -
16.09.2020 10:00:00 25,8 22,4 4 2 S 1015,6 -
16.09.2020 09:00:00 25,6 22,0 4 2 S 1015,3 -
16.09.2020 08:00:00 25,1 21,5 8 4 S 1015,3 0,0
16.09.2020 07:00:00 24,6 20,7 5 3 S 1015,3 -
16.09.2020 06:00:00 24,3 22,3 9 5 S 1015,6 -
16.09.2020 05:00:00 24,7 21,0 2 1 S 1015,8 -
16.09.2020 04:00:00 24,3 21,2 2 1 S 1015,8 -
16.09.2020 03:00:00 24,8 21,1 2 1 S 1016,2 -
16.09.2020 02:00:00 24,7 21,4 2 1 S 1016,5 0,0
16.09.2020 01:00:00 24,8 21,9 0 0 N 1016,7 -
16.09.2020 00:00:00 25,4 22,4 0 0 N 1017,0 -
15.09.2020 23:00:00 25,1 21,3 0 0 N 1016,8 -
15.09.2020 22:00:00 25,3 21,5 4 2 S 1016,8 -
15.09.2020 21:00:00 25,6 20,8 2 1 S 1016,8 -
15.09.2020 20:00:00 25,7 20,7 5 3 S 1016,3 0,0
15.09.2020 19:00:00 26,5 20,5 5 3 S 1016,4 -
15.09.2020 18:00:00 27,1 20,9 4 2 S 1016,2 -
15.09.2020 17:00:00 27,3 21,8 8 4 S 1016,4 -
15.09.2020 16:00:00 27,6 22,5 9 5 S 1016,6 -
15.09.2020 15:00:00 27,7 22,1 15 8 S 1017,1 -
15.09.2020 14:00:00 27,4 23,0 11 6 S 1017,8 0,0
15.09.2020 13:00:00 28,2 23,7 11 6 S 1018,2 -
15.09.2020 12:00:00 28,5 24,2 9 5 S 1018,6 -
15.09.2020 11:00:00 28,1 24,1 8 4 S 1018,6 -
15.09.2020 10:00:00 27,9 24,9 5 3 S 1018,3 -
15.09.2020 09:00:00 27,2 25,4 4 2 S 1018,0 -
15.09.2020 08:00:00 25,4 24,1 0 0 N 1018,1 0,0
15.09.2020 07:00:00 24,2 22,8 0 0 N 1018,0 -
15.09.2020 06:00:00 23,9 21,7 4 2 S 1017,9 -
15.09.2020 05:00:00 24,6 22,4 5 3 S 1018,2 -
15.09.2020 04:00:00 24,3 21,6 5 3 S 1018,5 -
15.09.2020 03:00:00 25,1 20,3 4 2 S 1018,8 -
15.09.2020 02:00:00 24,9 18,0 5 3 S 1019,2 0,0
15.09.2020 01:00:00 24,8 20,4 8 4 S 1019,7 -
15.09.2020 00:00:00 25,1 20,9 5 3 S 1019,8 -
14.09.2020 23:00:00 25,7 21,1 8 4 S 1020,2 -
14.09.2020 22:00:00 25,7 19,8 5 3 S 1019,9 -
14.09.2020 21:00:00 25,2 20,4 5 3 S 1019,8 -
14.09.2020 20:00:00 25,9 23,3 11 6 S 1019,4 0,0
14.09.2020 19:00:00 26,2 22,6 5 3 S 1019,1 -
14.09.2020 18:00:00 26,9 23,1 8 4 S 1019,2 -
14.09.2020 17:00:00 27,5 23,3 11 6 S 1019,1 -
14.09.2020 16:00:00 27,9 23,2 11 6 S 1019,1 -
14.09.2020 15:00:00 28,2 22,6 9 5 S 1019,6 -
14.09.2020 14:00:00 27,7 23,7 9 5 S 1020,2 0,0
14.09.2020 13:00:00 28,4 23,9 9 5 S 1020,4 -
14.09.2020 12:00:00 28,7 24,4 8 4 S 1020,7 -
14.09.2020 11:00:00 27,8 24,8 8 4 S 1021,0 -
14.09.2020 10:00:00 27,5 25,5 5 3 S 1020,8 -
14.09.2020 09:00:00 26,4 25,1 5 3 S 1020,2 -
14.09.2020 08:00:00 25,2 24,1 8 4 S 1019,9 0,0
14.09.2020 07:00:00 23,3 21,7 4 2 S 1019,8 -
14.09.2020 06:00:00 24,1 22,1 2 1 S 1019,7 -
14.09.2020 05:00:00 23,7 21,7 4 2 S 1019,9 -
14.09.2020 04:00:00 23,9 20,8 4 2 S 1019,9 -
14.09.2020 03:00:00 24,6 22,6 5 3 S 1019,9 -
14.09.2020 02:00:00 24,4 21,7 4 2 S 1020,4 -
14.09.2020 01:00:00 24,6 23,7 5 3 S 1020,5 -
14.09.2020 00:00:00 24,8 23,4 4 2 S 1020,4 -
13.09.2020 23:00:00 24,7 23,1 4 2 S 1020,3 -
13.09.2020 22:00:00 25,5 23,5 5 3 S 1020,2 -
13.09.2020 21:00:00 25,7 23,5 5 3 S 1020,0 -
13.09.2020 20:00:00 25,6 23,4 5 3 S 1019,3 0,0
13.09.2020 19:00:00 26,2 23,8 5 3 S 1018,7 -
13.09.2020 18:00:00 26,6 23,6 8 4 S 1018,4 -
13.09.2020 17:00:00 27,0 23,4 5 3 S 1018,0 -
13.09.2020 16:00:00 27,4 24,4 9 5 S 1018,1 -
13.09.2020 15:00:00 28,1 24,9 9 5 S 1018,1 -
13.09.2020 14:00:00 27,7 23,9 8 4 S 1018,4 0,0
13.09.2020 13:00:00 27,8 24,2 8 4 S 1018,9 -
13.09.2020 12:00:00 28,2 25,0 5 3 S 1019,3 -
13.09.2020 11:00:00 27,3 25,7 5 3 S 1019,1 -

tt = Température de l'air
td = dewpoint
ff = Vitesse du vent
dd = Direction du vent
ppp = reduced air pressure
rr = Quantités de précipitations

stations d'obs. à proximité